Map

Track Data

SID SEASON NUMBER BASIN SUBBASIN NAME ISO_TIME NATURE LAT LON WMO_WIND WMO_PRES WMO_AGENCY TRACK_TYPE DIST2LAND LANDFALL IFLAG USA_AGENCY USA_ATCF_ID USA_LAT USA_LON USA_RECORD USA_STATUS USA_WIND USA_PRES USA_SSHS USA_R34_NE USA_R34_SE USA_R34_SW USA_R34_NW USA_R50_NE USA_R50_SE USA_R50_SW USA_R50_NW USA_R64_NE USA_R64_SE USA_R64_SW USA_R64_NW USA_POCI USA_ROCI USA_RMW USA_EYE TOKYO_LAT TOKYO_LON TOKYO_GRADE TOKYO_WIND TOKYO_PRES TOKYO_R50_DIR TOKYO_R50_LONG TOKYO_R50_SHORT TOKYO_R30_DIR TOKYO_R30_LONG TOKYO_R30_SHORT TOKYO_LAND CMA_LAT CMA_LON CMA_CAT CMA_WIND CMA_PRES HKO_LAT HKO_LON HKO_CAT HKO_WIND HKO_PRES NEWDELHI_LAT NEWDELHI_LON NEWDELHI_GRADE NEWDELHI_WIND NEWDELHI_PRES NEWDELHI_CI NEWDELHI_DP NEWDELHI_POCI REUNION_LAT REUNION_LON REUNION_TYPE REUNION_WIND REUNION_PRES REUNION_TNUM REUNION_CI REUNION_RMW REUNION_R34_NE REUNION_R34_SE REUNION_R34_SW REUNION_R34_NW REUNION_R50_NE REUNION_R50_SE REUNION_R50_SW REUNION_R50_NW REUNION_R64_NE REUNION_R64_SE REUNION_R64_SW REUNION_R64_NW BOM_LAT BOM_LON BOM_TYPE BOM_WIND BOM_PRES BOM_TNUM BOM_CI BOM_RMW BOM_R34_NE BOM_R34_SE BOM_R34_SW BOM_R34_NW BOM_R50_NE BOM_R50_SE BOM_R50_SW BOM_R50_NW BOM_R64_NE BOM_R64_SE BOM_R64_SW BOM_R64_NW BOM_ROCI BOM_POCI BOM_EYE BOM_POS_METHOD BOM_PRES_METHOD NADI_LAT NADI_LON NADI_CAT NADI_WIND NADI_PRES WELLINGTON_LAT WELLINGTON_LON WELLINGTON_WIND WELLINGTON_PRES DS824_LAT DS824_LON DS824_STAGE DS824_WIND DS824_PRES TD9636_LAT TD9636_LON TD9636_STAGE TD9636_WIND TD9636_PRES TD9635_LAT TD9635_LON TD9635_WIND TD9635_PRES TD9635_ROCI NEUMANN_LAT NEUMANN_LON NEUMANN_CLASS NEUMANN_WIND NEUMANN_PRES MLC_LAT MLC_LON MLC_CLASS MLC_WIND MLC_PRES USA_GUST BOM_GUST BOM_GUST_PER REUNION_GUST REUNION_GUST_PER USA_SEAHGT USA_SEARAD_NE USA_SEARAD_SE USA_SEARAD_SW USA_SEARAD_NW STORM_SPEED STORM_DIR
1984139N09260 1984 33 EP MM ALMA 1984-05-17 18:00:00 TS 9.00000 -99.8000 30 hurdat_epa main 813 813 O_________O___ hurdat_epa EP011984 9.00000 -99.8000 TD 30 -1 9.00000 -99.8000 1 30 15 269
1984139N09260 1984 33 EP MM ALMA 1984-05-17 21:00:00 TS 8.99133 -100.550 main 840 840 P_________P___ EP011984 8.99030 -100.550 TD 30 -1 8.99439 -100.551 1 30 15 270
1984139N09260 1984 33 EP MM ALMA 1984-05-18 00:00:00 TS 9.00000 -101.300 30 hurdat_epa main 868 868 O_________O___ hurdat_epa EP011984 9.00000 -101.300 TD 30 -1 9.00000 -101.300 1 30 15 272
1984139N09260 1984 33 EP MM ALMA 1984-05-18 03:00:00 TS 9.03841 -102.049 main 896 896 P_________P___ EP011984 9.04235 -102.050 TD 30 -1 9.02660 -102.047 1 30 15 274
1984139N09260 1984 33 EP MM ALMA 1984-05-18 06:00:00 TS 9.09304 -102.798 30 hurdat_epa main 914 914 O_________P___ hurdat_epa EP011984 9.10000 -102.800 TD 30 -1 9.07216 -102.793 1 30 15 274
1984139N09260 1984 33 EP MM ALMA 1984-05-18 09:00:00 TS 9.14529 -103.548 main 945 940 P_________P___ EP011984 9.14985 -103.550 TD 30 -1 9.13164 -103.543 1 30 15 274
1984139N09260 1984 33 EP MM ALMA 1984-05-18 12:00:00 TS 9.20000 -104.300 30 hurdat_epa main 970 970 O_________O___ hurdat_epa EP011984 9.20000 -104.300 TD 30 -1 9.20000 -104.300 1 30 15 274
1984139N09260 1984 33 EP MM ALMA 1984-05-18 15:00:00 TS 9.25162 -105.049 main 990 990 P_________P___ EP011984 9.24230 -105.043 TD 35 0 9.27958 -105.068 1 33 15 274
1984139N09260 1984 33 EP MM ALMA 1984-05-18 18:00:00 TS 9.31611 -105.811 40 hurdat_epa main 1029 1029 O_________P___ hurdat_epa EP011984 9.30000 -105.800 TS 40 0 9.36443 -105.842 1 37 15 276
1984139N09260 1984 33 EP MM ALMA 1984-05-18 21:00:00 TS 9.41604 -106.599 main 1051 1051 P_________P___ EP011984 9.40737 -106.592 TS 42 0 9.44205 -106.621 1 41 16 277
1984139N09260 1984 33 EP MM ALMA 1984-05-19 00:00:00 TS 9.50000 -107.400 45 hurdat_epa main 1071 1071 O_________O___ hurdat_epa EP011984 9.50000 -107.400 TS 45 0 9.50000 -107.400 2 45 16 274
1984139N09260 1984 33 EP MM ALMA 1984-05-19 03:00:00 TS 9.51641 -108.200 main 1108 1108 P_________P___ EP011984 9.51487 -108.208 TS 45 0 9.52105 -108.175 2 46 16 270
1984139N09260 1984 33 EP MM ALMA 1984-05-19 06:00:00 TS 9.50545 -108.988 45 hurdat_epa main 1150 1150 O_________P___ hurdat_epa EP011984 9.50000 -109.000 TS 45 0 9.52182 -108.950 2 47 15 269
1984139N09260 1984 33 EP MM ALMA 1984-05-19 09:00:00 TS 9.50276 -109.749 main 1190 1190 P_________P___ EP011984 9.49979 -109.757 TS 47 0 9.51167 -109.725 2 48 15 270
1984139N09260 1984 33 EP MM ALMA 1984-05-19 12:00:00 TS 9.50000 -110.500 50 hurdat_epa main 1241 1241 O_________O___ hurdat_epa EP011984 9.50000 -110.500 TS 50 0 9.50000 -110.500 2 50 15 270
1984139N09260 1984 33 EP MM ALMA 1984-05-19 15:00:00 TS 9.49976 -111.254 main 1291 1291 P_________P___ EP011984 9.49979 -111.243 TS 50 0 9.49967 -111.287 2 48 15 270
1984139N09260 1984 33 EP MM ALMA 1984-05-19 18:00:00 TS 9.49990 -112.018 50 hurdat_epa main 1333 1333 O_________P___ hurdat_epa EP011984 9.50000 -112.000 TS 50 0 9.49961 -112.072 2 47 15 270
1984139N09260 1984 33 EP MM ALMA 1984-05-19 21:00:00 TS 9.49987 -112.812 main 1385 1385 P_________P___ EP011984 9.49992 -112.800 TS 47 0 9.49972 -112.847 2 46 16 270
1984139N09260 1984 33 EP MM ALMA 1984-05-20 00:00:00 TS 9.50000 -113.600 45 hurdat_epa main 1440 1440 O_________O___ hurdat_epa EP011984 9.50000 -113.600 TS 45 0 9.50000 -113.600 2 45 15 270
1984139N09260 1984 33 EP MM ALMA 1984-05-20 03:00:00 TS 9.49982 -114.365 main 1498 1498 P_________P___ EP011984 9.49988 -114.372 TS 47 0 9.49963 -114.342 2 46 15 270
1984139N09260 1984 33 EP MM ALMA 1984-05-20 06:00:00 TS 9.49990 -115.090 50 hurdat_epa main 1551 1551 O_________P___ hurdat_epa EP011984 9.50000 -115.100 TS 50 0 9.49958 -115.060 2 47 14 270
1984139N09260 1984 33 EP MM ALMA 1984-05-20 09:00:00 TS 9.49981 -115.766 main 1605 1605 P_________P___ EP011984 9.49983 -115.772 TS 50 0 9.49974 -115.748 2 48 13 270
1984139N09260 1984 33 EP MM ALMA 1984-05-20 12:00:00 TS 9.50000 -116.400 50 hurdat_epa main 1647 1647 O_________O___ hurdat_epa EP011984 9.50000 -116.400 TS 50 0 9.50000 -116.400 2 50 12 270
1984139N09260 1984 33 EP MM ALMA 1984-05-20 15:00:00 TS 9.49982 -117.019 main 1674 1674 P_________P___ EP011984 9.49990 -117.015 TS 47 0 9.49961 -117.031 2 47 12 270
1984139N09260 1984 33 EP MM ALMA 1984-05-20 18:00:00 TS 9.49989 -117.606 45 hurdat_epa main 1704 1704 O_________P___ hurdat_epa EP011984 9.50000 -117.600 TS 45 0 9.49956 -117.625 2 45 11 270
1984139N09260 1984 33 EP MM ALMA 1984-05-20 21:00:00 TS 9.49989 -118.175 main 1735 1735 P_________P___ EP011984 9.49994 -118.172 TS 42 0 9.49973 -118.181 2 42 11 270
1984139N09260 1984 33 EP MM ALMA 1984-05-21 00:00:00 TS 9.50000 -118.700 40 hurdat_epa main 1762 1762 O_________O___ hurdat_epa EP011984 9.50000 -118.700 TS 40 0 9.50000 -118.700 2 40 10 270
1984139N09260 1984 33 EP MM ALMA 1984-05-21 03:00:00 TS 9.49706 -119.173 main 1791 1791 P_________P___ EP011984 9.49988 -119.165 TS 40 0 9.48860 -119.195 2 40 9 270
1984139N09260 1984 33 EP MM ALMA 1984-05-21 06:00:00 TS 9.49479 -119.614 40 hurdat_epa main 1814 1814 O_________P___ hurdat_epa EP011984 9.50000 -119.600 TS 40 0 9.47917 -119.655 2 40 9 270
1984139N09260 1984 33 EP MM ALMA 1984-05-21 09:00:00 TS 9.48940 -120.065 main 1845 1845 P_________P___ EP011984 9.49247 -120.058 TS 40 0 9.48018 -120.087 2 40 9 270
1984139N09260 1984 33 EP MM ALMA 1984-05-21 12:00:00 TS 9.50000 -120.500 40 hurdat_epa main 1870 1870 O_________O___ hurdat_epa EP011984 9.50000 -120.500 TS 40 0 9.50000 -120.500 2 40 8 274
1984139N09260 1984 33 EP MM ALMA 1984-05-21 15:00:00 TS 9.54088 -120.908 main 1896 1893 P_________P___ EP011984 9.54007 -120.910 TS 35 0 9.54331 -120.903 2 35 8 277
1984139N09260 1984 33 EP MM ALMA 1984-05-21 18:00:00 TS 9.60000 -121.300 30 hurdat_epa main 1913 O_________O___ hurdat_epa EP011984 9.60000 -121.300 TD 30 -1 9.60000 -121.300 1 30 8 279

About IBTrACS Database

This database is a web-friendly format of International Best Track Archive for Climate Stewardship (IBTrACS), a global best track data archive curated by NOAA dating back to 1842.

Updated: 2021-12-03